Terminal Aerodrome Forecast
Issued by NWS Sterling, VA

Current Version | Previous Version | Text Only | Print | Product List | Glossary On
Versions: 1 2 3 4 5 6 7 8 9 10 11 12 13 14 15 16 17 18 19 20 21
000
FTUS41 KLWX 191130
TAFMRB
TAF
KMRB 191130Z 1912/2012 29007KT P6SM SCT200
     FM191800 26007KT P6SM SCT050 SCT200
     FM192300 VRB04KT P6SM BKN050
     FM200500 33008KT P6SM FEW050=

USA.gov is the U.S. government's official web portal to all federal, state and local government web resources and services.